Mendocino, CA (95460)

1:50 AM PDT on August 30, 2016 (GMT -0700)
Big River Ridge Mendocino | | Change Station

Elev 486 ft 39.31 °N, 123.78 °W | Updated 40 seconds ago

Clear
Clear
56.1 °F
Feels Like 56.1 °F
N
0.0
Wind Variable Wind from North
Gusts 1.0 mph

Today
High -- | Low -- °F
--% Chance of Precip.
Yesterday
High -- | Low -- °F
Precip. -- in
Pressure 30.04 in
Visibility 10.0 miles
Clouds Clear
Dew Point 54 °F
Humidity 92%
Rainfall 0.00 in
Snow Depth Not available.
6:42 AM 7:48 PM
Waning Crescent, 4% visible
METAR KUKI 300756Z AUTO 02006KT 10SM CLR 16/11 A3005 RMK AO2 SLP170 T01560106 402830111
Pressure 30.04 in
Visibility 10.0 miles
Clouds Clear
Dew Point 54 °F
Humidity 92%
Rainfall 0.00 in
Snow Depth Not available.
6:42 AM 7:48 PM
Waning Crescent, 4% visible
METAR KUKI 300756Z AUTO 02006KT 10SM CLR 16/11 A3005 RMK AO2 SLP170 T01560106 402830111

10-Day Weather Forecast

Almanac

Astronomy

Aug. 30, 2016 Rise Set
Actual Time
Civil Twilight
Nautical Twilight
Astronomical Twilight
Moon
Length of Visible Light
Length of Day
Tomorrow will be .
, % of the Moon is Illuminated

Today's Extremes

State Highs State Lows

Community

WunderPhotos

Upload Photos

1,935,795 photos uploaded!

WunderBlog® & News

Nearby

Air Quality

  Air Quality AQ Index Pollutant
Not available.

Snow Depth

Station Depth Elevation

Earthquake Activity

City Distance Mag. Time & Date
Minimum magnitude displayed is 2.5.

Coastal Water Temperatures

Place Temperature

Stations

Nearby Weather Stations

Station Location Temp. Windchill Dew Point Humidity Wind Precip. Elev Updated Type
                   

Watches & Warnings

There are currently no watches in effect.